6 de julio de 2022

Hora Código Tiempo Temp. Visibilidad Cielo nuboso Viento METAR/SPECI
4:00 a. m.
V
75 °F 6¼ mi+ - Var Var 4 kt METAR AYPY 051800Z VRB04KT 9999 FEW050 24/23 Q1008
3:00 a. m.
V
75 °F 6¼ mi+ - 340° 340° 5 kt METAR AYPY 051700Z 34005KT 9999 FEW040 24/23 Q1008
2:00 a. m.
V
75 °F 6¼ mi+ - Var Var 1 kt METAR AYPY 051600Z VRB01KT 9999 FEW040 24/23 Q1009
1:00 a. m.
V
75 °F 6¼ mi+ - Var Var 1 kt METAR AYPY 051500Z VRB01KT 9999 FEW040 24/23 Q1009

5 de julio de 2022

Hora Código Tiempo Temp. Visibilidad Cielo nuboso Viento METAR/SPECI
11:00 p. m.
V
77 °F 6¼ mi+ - Var Var 3 kt METAR AYPY 051300Z VRB03KT 9999 FEW050 25/23 Q1009
10:00 p. m.
V
77 °F 6¼ mi+ - Var Var 3 kt METAR AYPY 051200Z VRB03KT 9999 FEW050 25/23 Q1009
8:00 p. m.
V
81 °F 6¼ mi+ 8.000 ft Var Var 3 kt METAR AYPY 051000Z VRB03KT 9999 SCT030 BKN080 27/25 Q1009
7:00 p. m.
V
82 °F 6¼ mi+ 8.000 ft Var Var 3 kt METAR AYPY 050900Z VRB03KT 9999 SCT030 BKN080 28/25 Q1008
6:00 p. m.
V
82 °F 6¼ mi+ - 250° 250° 10 kt METAR AYPY 050800Z 25010KT 9999 HZ FEW010 SCT025 SCT040 28/25 Q1007 RMK
5:00 p. m.
V
84 °F 6¼ mi+ 5.000 ft 200° 200° 10 kt METAR AYPY 050700Z 20010KT 9999 HZ FEW010 SCT025 BKN050 29/25 Q1006 RMK/CB FM N TO E
4:00 p. m.
V
86 °F 6¼ mi+ 6.000 ft 210° 210° 10 kt METAR AYPY 050600Z 21010KT 9999 HZ FEW020 SCT030 BKN060 30/25 Q1006 RMK
3:00 p. m.
V
88 °F 6¼ mi+ 6.000 ft 210° 210° 10 kt METAR AYPY 050500Z 21010KT 9999 HZ SCT030 BKN060 31/25 Q1005 RMK/CB TO THE NW
2:00 p. m.
V
90 °F 6¼ mi+ - 240° 240° 15 kt METAR AYPY 050400Z 24015KT 9999 HZ SCT035 SCT060 32/24 Q1006
1:00 p. m.
V
91 °F 6¼ mi+ 6.000 ft 250° 250° 10 kt METAR AYPY 050300Z 25010KT 9999 HZ SCT030 BKN060 33/25 Q1006 RMK
12:00 p. m.
V
88 °F 6¼ mi+ - 230° 230° 10 kt METAR AYPY 050200Z 23010KT 9999 HZ SCT030 SCT050 31/24 Q1008
11:00 a. m.
V
88 °F 6¼ mi+ - 270° 270° 10 kt METAR AYPY 050100Z 27010KT 9999 HZ SCT030 SCT050 31/24 Q1008
10:00 a. m.
V
90 °F 6¼ mi+ - 030° 030° 7 kt METAR AYPY 050000Z 03007KT 9999 HZ FEW025 FEW050 32/23 Q1009
6:00 a. m.
V
77 °F 6¼ mi+ - Var Var 4 kt METAR AYPY 042000Z VRB04KT 9999 SCT050 25/24 Q1007 RMK
5:00 a. m.
V
75 °F 6¼ mi+ - Var Var 4 kt METAR AYPY 041900Z VRB04KT 9999 SCT050 24/24 Q1007
4:00 a. m.
V
77 °F 6¼ mi+ - 310° 310° 5 kt METAR AYPY 041800Z 31005KT 9999 SCT040 25/24 Q1007
3:00 a. m.
V
77 °F 6¼ mi+ - Var Var 3 kt METAR AYPY 041700Z VRB03KT 9999 SCT040 25/24 Q1007
2:00 a. m.
V
77 °F 6¼ mi+ - 300° 300° 5 kt METAR AYPY 041600Z 30005KT 9999 SCT050 25/24 Q1007
12:00 a. m.
V
79 °F 6¼ mi+ - 180° 180° 5 kt METAR AYPY 041400Z 18005KT 9999 SCT040 26/25 Q1008

4 de julio de 2022

Hora Código Tiempo Temp. Visibilidad Cielo nuboso Viento METAR/SPECI
11:00 p. m.
V
81 °F 6¼ mi+ - 180° 180° 5 kt METAR AYPY 041300Z 18005KT 9999 SCT040 27/26 Q1008
10:00 p. m.
V
82 °F 6¼ mi+ - 180° 180° 5 kt METAR AYPY 041200Z 18005KT 9999 FEW030 28/25 Q1008
9:00 p. m.
V
82 °F 6¼ mi+ - 190° 190° 5 kt METAR AYPY 041100Z 19005KT 9999 FEW050 28/25 Q1008
8:00 p. m.
V
82 °F 6¼ mi+ - 180° 180° 5 kt METAR AYPY 041000Z 18005KT 9999 FEW050 28/25 Q1007
7:00 p. m.
V
81 °F 6¼ mi+ - 160° 160° 5 kt METAR AYPY 040900Z 16005KT 9999 FEW050 27/25 Q1006
6:00 p. m.
V
84 °F 6¼ mi+ - 180° 180° 10 kt METAR AYPY 040800Z 18010KT 9999 HZ FEW050 29/25 Q1005
5:00 p. m.
V
86 °F 6¼ mi+ - 200° 200° 10 kt METAR AYPY 040700Z 20010KT 9999 HZ FEW040 30/24 Q1004
4:00 p. m.
V
88 °F 6¼ mi+ - 220° 220° 10 kt METAR AYPY 040600Z 22010KT 9999 FEW030 31/24 Q1004
3:00 p. m.
V
90 °F 6¼ mi+ - 200° 200° 10 kt METAR AYPY 040500Z 20010KT 9999 FEW030 32/24 Q1004
2:00 p. m.
V
90 °F 6¼ mi+ - 200° 200° 9 kt METAR AYPY 040400Z 20009KT 9999 SCT018 32/24 Q1004
1:00 p. m.
V
90 °F 6¼ mi+ - 200° 200° 7 kt METAR AYPY 040300Z 20007KT 9999 SCT018 32/24 Q1005
12:00 p. m.
V
88 °F 6¼ mi+ - 190° 190° 5 - 10 kt METAR AYPY 040200Z 19005G10KT 9999 SCT035 31/24 Q1006
11:00 a. m.
V
90 °F 6¼ mi+ - Var Var 3 kt METAR AYPY 040100Z VRB03KT 9999 SCT030 32/24 Q1007
10:01 a. m.
V
88 °F 6¼ mi+ - 340° 340° 5 kt METAR AYPY 040001Z 34005KT 9999 HZ SCT025 31/24 Q1007
10:00 a. m.
V
86 °F 6¼ mi+ - 360° 360° 5 kt METAR AYPY 040000Z 36005KT 9999 SCT018 SCT280 30/23 Q1007
9:00 a. m.
V
84 °F 6¼ mi+ - Var Var 4 kt METAR AYPY 032300Z VRB04KT 9999 FUHZ FEW030 29/24 Q1008
8:00 a. m.
V
79 °F 6¼ mi+ - Var Var 4 kt METAR AYPY 032200Z VRB04KT 9999 FUHZ SCT035 26/24 Q1007=
7:00 a. m.
V
75 °F 6¼ mi+ - Var Var 3 kt METAR AYPY 032100Z VRB03KT 9999 HZ FEW030 SCT100 24/23 Q1007
6:00 a. m.
V
75 °F 6¼ mi+ - Var Var 3 kt METAR AYPY 032000Z VRB03KT 9999 FEW040 SCT060 24/24 Q1006
5:00 a. m.
V
75 °F 6¼ mi+ - Var Var 3 kt METAR AYPY 031900Z VRB03KT 9999 FEW030 SCT140 24/24 Q1006
4:00 a. m.
V
77 °F 6¼ mi+ - Var Var 3 kt METAR AYPY 031800Z VRB03KT 9999 SCT030 SCT140 25/24 Q1006
3:00 a. m.
V
75 °F 6¼ mi+ - Var Var 3 kt METAR AYPY 031700Z VRB03KT 9999 SCT140 24/24 Q1006
2:00 a. m.
V
77 °F 6¼ mi+ - Var Var 3 kt METAR AYPY 031600Z VRB03KT 9999 SCT140 25/24 Q1007
1:00 a. m.
V
77 °F 6¼ mi+ - Var Var 3 kt METAR AYPY 031500Z VRB03KT 9999 FEW080 25/24 Q1007
Datos más antiguos

Descarga nuestra aplicación

Acceso fácil a todo el tiempo de la aviación en tu teléfono móvil y tableta.
Con muchas funciones no disponibles en el sitio web, como la compatibilidad sin conexión y una lista personal de aeropuertos.

Nosotros y terceros seguimos tu comportamiento en Internet en nuestro sitio web con cookies. Si continúas, asumimos que estás de acuerdo con nuestra política de cookies. Más información